createdAt,value
2023-03-02T00:01:40.331Z,21.83
2023-03-02T00:04:09.876Z,26.63
2023-03-02T00:06:37.564Z,23.40
2023-03-02T00:09:06.186Z,24.33
2023-03-02T00:11:35.358Z,24.08
2023-03-02T00:14:03.721Z,21.63
2023-03-02T00:16:31.315Z,26.58
2023-03-02T00:18:59.163Z,25.95
2023-03-02T00:21:26.666Z,31.23
2023-03-02T00:23:54.268Z,31.13
2023-03-02T00:26:21.822Z,32.85
2023-03-02T00:28:49.368Z,35.55
2023-03-02T00:31:16.952Z,33.13
2023-03-02T00:33:45.291Z,35.92
2023-03-02T00:36:28.131Z,38.72
2023-03-02T00:38:55.587Z,32.72
2023-03-02T00:41:22.913Z,33.25
2023-03-02T00:43:50.783Z,34.55
2023-03-02T00:46:23.200Z,43.03
2023-03-02T00:48:51.643Z,39.65
2023-03-02T00:51:19.195Z,40.17
2023-03-02T00:53:46.683Z,35.78
2023-03-02T00:56:14.333Z,45.35
2023-03-02T00:58:41.687Z,43.63
2023-03-02T01:01:12.463Z,45.42
2023-03-02T01:03:39.920Z,44.20
2023-03-02T01:06:13.868Z,45.17
2023-03-02T01:08:41.180Z,52.33
2023-03-02T01:11:34.493Z,51.92
2023-03-02T01:16:29.129Z,55.45
2023-03-02T01:18:56.539Z,54.45
2023-03-02T01:21:23.801Z,54.58
2023-03-02T01:23:51.815Z,55.30
2023-03-02T01:26:19.214Z,62.22
2023-03-02T01:28:46.551Z,62.58
2023-03-02T01:31:15.263Z,63.33
2023-03-02T01:33:42.601Z,70.82
2023-03-02T01:36:10.020Z,59.90
2023-03-02T01:38:37.396Z,74.72
2023-03-02T01:41:04.933Z,67.32
2023-03-02T01:43:32.503Z,67.28
2023-03-02T01:46:10.682Z,83.03
2023-03-02T01:48:40.789Z,70.15
2023-03-02T01:51:08.309Z,72.68
2023-03-02T01:53:36.152Z,81.90
2023-03-02T01:56:03.870Z,85.57
2023-03-02T01:58:35.371Z,79.25
2023-03-02T02:01:03.345Z,74.45
2023-03-02T02:03:31.508Z,81.18
2023-03-02T02:06:04.464Z,81.00
2023-03-02T02:08:32.069Z,80.15
2023-03-02T02:10:59.622Z,92.97
2023-03-02T02:13:28.832Z,82.30
2023-03-02T02:15:56.198Z,83.88
2023-03-02T02:18:24.047Z,85.70
2023-03-02T02:20:53.573Z,84.38
2023-03-02T02:23:46.758Z,93.32
2023-03-02T02:26:31.901Z,92.15
2023-03-02T02:29:02.845Z,96.78
2023-03-02T02:31:57.334Z,91.40
2023-03-02T02:34:27.380Z,91.22
2023-03-02T02:36:58.613Z,94.97
2023-03-02T02:39:30.644Z,94.78
2023-03-02T02:42:01.246Z,94.72
2023-03-02T02:44:28.574Z,89.80
2023-03-02T02:46:55.982Z,91.70
2023-03-02T02:49:28.034Z,95.35
2023-03-02T02:51:55.440Z,90.53
2023-03-02T02:54:23.360Z,98.15
2023-03-02T02:56:51.213Z,91.47
2023-03-02T02:59:41.790Z,96.72
2023-03-02T03:02:19.516Z,99.85
2023-03-02T03:04:47.491Z,92.32
2023-03-02T03:07:23.055Z,109.35
2023-03-02T03:10:09.670Z,103.55
2023-03-02T03:12:37.284Z,104.28
2023-03-02T03:15:05.295Z,113.30
2023-03-02T03:17:32.647Z,102.97
2023-03-02T03:20:06.295Z,110.28
2023-03-02T03:22:38.131Z,103.18
2023-03-02T03:25:05.952Z,114.03
2023-03-02T03:27:33.393Z,105.38
2023-03-02T03:30:01.997Z,104.00
2023-03-02T03:32:29.405Z,113.75
2023-03-02T03:34:58.091Z,108.03
2023-03-02T03:37:34.471Z,109.57
2023-03-02T03:40:01.995Z,109.72
2023-03-02T03:42:29.311Z,109.47
2023-03-02T03:44:58.900Z,112.93
2023-03-02T03:47:26.187Z,119.00
2023-03-02T03:49:53.452Z,116.80
2023-03-02T03:52:30.368Z,105.85
2023-03-02T03:55:01.718Z,113.20
2023-03-02T03:57:29.982Z,111.88
2023-03-02T03:59:57.642Z,109.65
2023-03-02T04:02:25.052Z,111.22
2023-03-02T04:04:52.400Z,112.13
2023-03-02T04:07:19.854Z,111.53
2023-03-02T04:09:48.246Z,107.80
2023-03-02T04:12:15.582Z,96.63
2023-03-02T04:14:42.955Z,101.32
2023-03-02T04:17:10.302Z,111.13
2023-03-02T04:19:37.633Z,105.85
2023-03-02T04:22:05.021Z,103.45
2023-03-02T04:24:32.689Z,88.43
2023-03-02T04:27:00.004Z,103.20
2023-03-02T04:29:27.458Z,102.70
2023-03-02T04:31:54.849Z,99.28
2023-03-02T04:34:23.433Z,111.70
2023-03-02T04:36:51.185Z,102.70
2023-03-02T04:39:19.496Z,105.38
2023-03-02T04:41:47.743Z,113.05
2023-03-02T04:44:15.709Z,107.18
2023-03-02T04:46:44.811Z,107.03
2023-03-02T04:49:13.675Z,107.85
2023-03-02T04:51:43.621Z,108.15
2023-03-02T04:54:18.540Z,101.43
2023-03-02T04:56:48.652Z,105.65
2023-03-02T04:59:20.931Z,102.50
2023-03-02T05:01:49.299Z,103.65
2023-03-02T05:04:17.254Z,100.72
2023-03-02T05:06:44.732Z,103.47
2023-03-02T05:09:12.390Z,101.40
2023-03-02T05:11:39.755Z,98.60
2023-03-02T05:14:10.220Z,103.15
2023-03-02T05:16:41.003Z,100.93
2023-03-02T05:19:12.378Z,92.40
2023-03-02T05:21:40.234Z,93.82
2023-03-02T05:24:08.104Z,91.50
2023-03-02T05:26:36.254Z,100.47
2023-03-02T05:29:03.865Z,102.07
2023-03-02T05:31:37.409Z,99.00
2023-03-02T05:34:07.220Z,95.47
2023-03-02T05:36:35.283Z,97.47
2023-03-02T05:39:03.800Z,97.85
2023-03-02T05:41:31.255Z,94.18
2023-03-02T05:43:58.717Z,97.85
2023-03-02T05:46:26.106Z,94.80
2023-03-02T05:48:53.698Z,94.38
2023-03-02T05:51:21.253Z,90.72
2023-03-02T05:53:48.810Z,94.43
2023-03-02T05:56:16.182Z,95.03
2023-03-02T05:58:43.573Z,99.85
2023-03-02T06:01:15.160Z,90.78
2023-03-02T06:03:43.430Z,84.90
2023-03-02T06:06:14.400Z,94.47
2023-03-02T06:08:43.039Z,95.47
2023-03-02T06:11:10.790Z,91.18
2023-03-02T06:13:39.047Z,93.03
2023-03-02T06:16:06.795Z,94.00
2023-03-02T06:18:34.694Z,89.82
2023-03-02T06:21:02.702Z,94.75
2023-03-02T06:23:30.514Z,86.18
2023-03-02T06:25:59.067Z,91.20
2023-03-02T06:28:27.003Z,88.78
2023-03-02T06:30:54.470Z,88.18
2023-03-02T06:33:22.095Z,95.35
2023-03-02T06:35:50.323Z,89.60
2023-03-02T06:38:18.180Z,88.47
2023-03-02T06:40:45.567Z,85.15
2023-03-02T06:43:13.093Z,88.25
2023-03-02T06:45:40.474Z,83.32
2023-03-02T06:48:08.382Z,79.72
2023-03-02T06:50:35.854Z,91.22
2023-03-02T06:53:03.221Z,89.90
2023-03-02T06:55:30.638Z,89.10
2023-03-02T06:57:58.211Z,84.40
2023-03-02T07:00:26.274Z,80.70
2023-03-02T07:02:54.911Z,76.03
2023-03-02T07:05:23.541Z,70.97
2023-03-02T07:07:50.946Z,66.85
2023-03-02T07:10:18.601Z,68.45
2023-03-02T07:12:45.965Z,63.67
2023-03-02T07:15:14.411Z,63.80
2023-03-02T07:17:43.276Z,55.58
2023-03-02T07:20:12.512Z,53.90
2023-03-02T07:22:40.510Z,51.13
2023-03-02T07:25:09.123Z,57.22
2023-03-02T07:27:36.827Z,49.97
2023-03-02T07:30:05.596Z,52.70
2023-03-02T07:32:33.318Z,50.50
2023-03-02T07:35:00.738Z,49.28
2023-03-02T07:37:28.115Z,51.05
2023-03-02T07:39:55.470Z,46.33
2023-03-02T07:42:22.810Z,44.65
2023-03-02T07:44:52.176Z,50.33
2023-03-02T07:47:19.616Z,50.17
2023-03-02T07:49:46.960Z,46.60
2023-03-02T07:52:14.688Z,49.08
2023-03-02T07:54:42.164Z,50.38
2023-03-02T07:57:09.635Z,50.40
2023-03-02T07:59:37.058Z,52.90
2023-03-02T08:02:04.438Z,51.03
2023-03-02T08:04:31.826Z,51.83
2023-03-02T08:06:59.127Z,56.25
2023-03-02T08:09:34.001Z,48.30
2023-03-02T08:12:04.878Z,50.90
2023-03-02T08:14:32.478Z,51.55
2023-03-02T08:16:59.826Z,47.97
2023-03-02T08:19:27.169Z,51.15
2023-03-02T08:21:54.694Z,50.83
2023-03-02T08:24:22.026Z,48.92
2023-03-02T08:26:49.365Z,55.65
2023-03-02T08:29:16.712Z,52.90
2023-03-02T08:31:44.050Z,54.60
2023-03-02T08:34:12.007Z,54.85
2023-03-02T08:36:41.032Z,50.22
2023-03-02T08:39:08.370Z,53.63
2023-03-02T08:41:36.023Z,54.30
2023-03-02T08:44:03.482Z,53.53
2023-03-02T08:46:31.585Z,54.92
2023-03-02T08:48:59.131Z,61.65
2023-03-02T08:51:27.359Z,49.70
2023-03-02T08:53:58.642Z,52.05
2023-03-02T08:56:29.965Z,53.08
2023-03-02T08:59:00.457Z,50.00
2023-03-02T09:01:30.797Z,48.75
2023-03-02T09:04:00.704Z,46.95
2023-03-02T09:06:29.698Z,51.35
2023-03-02T09:08:57.703Z,49.97
2023-03-02T09:11:25.287Z,53.40
2023-03-02T09:13:54.227Z,46.97
2023-03-02T09:16:22.005Z,47.92
2023-03-02T09:18:49.440Z,44.28
2023-03-02T09:21:16.892Z,44.70
2023-03-02T09:23:44.277Z,45.42
2023-03-02T09:26:11.637Z,42.25
2023-03-02T09:28:39.853Z,37.17
2023-03-02T09:31:09.033Z,39.67
2023-03-02T09:33:36.521Z,42.63
2023-03-02T09:36:12.275Z,41.17
2023-03-02T09:38:40.828Z,33.70
2023-03-02T09:41:20.472Z,36.13
2023-03-02T09:43:51.043Z,37.42
2023-03-02T09:46:32.225Z,35.85
2023-03-02T09:49:14.593Z,34.33
2023-03-02T09:51:57.459Z,34.10
2023-03-02T09:54:25.498Z,33.10
2023-03-02T09:57:00.018Z,35.38
2023-03-02T09:59:31.631Z,37.67
2023-03-02T10:02:13.933Z,35.22
2023-03-02T10:04:47.479Z,33.70
2023-03-02T10:07:17.603Z,30.75
2023-03-02T10:09:44.992Z,29.63
2023-03-02T10:12:39.890Z,31.88
2023-03-02T10:15:24.326Z,30.98
2023-03-02T10:18:06.666Z,30.67
2023-03-02T10:21:30.879Z,31.45
2023-03-02T10:24:05.811Z,28.58
2023-03-02T10:26:36.016Z,31.95
2023-03-02T10:29:20.505Z,29.23
2023-03-02T10:31:52.721Z,29.55
2023-03-02T10:34:20.244Z,28.45
2023-03-02T10:36:47.775Z,30.52
2023-03-02T10:39:17.073Z,34.20
2023-03-02T10:42:02.773Z,32.15
2023-03-02T10:44:39.027Z,28.67
2023-03-02T10:47:08.600Z,26.05
2023-03-02T10:49:39.531Z,30.10
2023-03-02T10:52:21.210Z,33.67
2023-03-02T10:54:49.118Z,30.50
2023-03-02T10:57:40.620Z,30.60
2023-03-02T11:00:18.535Z,30.35
2023-03-02T11:02:51.647Z,30.70
2023-03-02T11:05:30.236Z,29.38
2023-03-02T11:08:04.525Z,27.85
2023-03-02T11:10:40.591Z,25.67
2023-03-02T11:13:28.732Z,28.42
2023-03-02T11:16:01.818Z,27.65
2023-03-02T11:18:31.267Z,30.63
2023-03-02T11:21:03.938Z,27.55
2023-03-02T11:23:56.372Z,29.65
2023-03-02T11:27:04.121Z,30.43
2023-03-02T11:30:02.475Z,29.77
2023-03-02T11:32:48.410Z,27.05
2023-03-02T11:35:31.409Z,29.25
2023-03-02T11:38:15.105Z,26.95
2023-03-02T11:40:58.914Z,25.52
2023-03-02T11:43:26.611Z,27.38
2023-03-02T11:46:08.557Z,28.25
2023-03-02T11:48:42.617Z,26.75
2023-03-02T11:51:13.811Z,24.58
2023-03-02T11:53:53.948Z,29.80
2023-03-02T11:56:21.773Z,29.23
2023-03-02T11:59:06.210Z,27.55
2023-03-02T12:01:36.791Z,25.88
2023-03-02T12:04:37.742Z,28.55
2023-03-02T12:07:18.852Z,23.73
2023-03-02T12:10:06.930Z,23.67
2023-03-02T12:12:57.232Z,26.58
2023-03-02T12:15:43.112Z,26.48
2023-03-02T12:18:22.544Z,20.23
2023-03-02T12:21:00.276Z,23.77
2023-03-02T12:23:28.262Z,26.23
2023-03-02T12:26:05.674Z,23.08
2023-03-02T12:28:39.206Z,22.90
2023-03-02T12:31:14.460Z,21.55
2023-03-02T12:33:48.198Z,22.75
2023-03-02T12:36:21.103Z,22.88
2023-03-02T12:42:03.743Z,19.15
2023-03-02T12:44:38.676Z,21.38
2023-03-02T12:47:13.481Z,24.42
2023-03-02T12:50:04.488Z,21.88
2023-03-02T12:52:34.547Z,20.60
2023-03-02T12:55:17.460Z,19.85
2023-03-02T12:57:49.708Z,19.10
2023-03-02T13:00:20.294Z,19.60
2023-03-02T13:02:50.192Z,18.38
2023-03-02T13:05:29.126Z,20.60
2023-03-02T13:08:16.687Z,19.85
2023-03-02T13:10:55.565Z,23.20
2023-03-02T13:13:39.824Z,26.77
2023-03-02T13:16:22.580Z,30.73
2023-03-02T13:18:55.364Z,33.60
2023-03-02T13:21:49.433Z,67.68
2023-03-02T13:24:46.793Z,32.75
2023-03-02T13:27:19.665Z,64.63
2023-03-02T13:29:47.754Z,58.83
2023-03-02T13:32:21.268Z,28.08
2023-03-02T13:34:56.122Z,30.40
2023-03-02T13:37:37.565Z,29.95
2023-03-02T13:40:32.894Z,44.38
2023-03-02T13:42:59.919Z,31.52
2023-03-02T13:45:32.360Z,32.42
2023-03-02T13:48:11.959Z,24.48
2023-03-02T13:50:38.997Z,25.67
2023-03-02T13:53:07.123Z,25.95
2023-03-02T13:55:34.961Z,24.45
2023-03-02T13:58:02.681Z,28.52
2023-03-02T14:00:34.243Z,25.08
2023-03-02T14:03:02.095Z,25.50
2023-03-02T14:05:35.162Z,25.25
2023-03-02T14:08:07.229Z,26.80
2023-03-02T14:10:34.248Z,26.03
2023-03-02T14:13:09.564Z,28.65
2023-03-02T14:15:43.485Z,27.60
2023-03-02T14:18:42.018Z,29.13
2023-03-02T14:21:22.441Z,29.33
2023-03-02T14:23:50.490Z,28.00
2023-03-02T14:26:39.216Z,27.95
2023-03-02T14:29:34.498Z,29.48
2023-03-02T14:32:04.314Z,27.52
2023-03-02T14:34:31.308Z,27.38
2023-03-02T14:37:20.421Z,27.25
2023-03-02T14:39:55.315Z,30.38
2023-03-02T14:42:23.158Z,25.30
2023-03-02T14:44:51.709Z,26.58
2023-03-02T14:47:22.022Z,26.80
2023-03-02T14:49:49.852Z,27.63
2023-03-02T14:52:36.152Z,30.67
2023-03-02T14:55:08.764Z,31.33
2023-03-02T14:57:40.169Z,30.02
2023-03-02T15:00:09.171Z,34.35
2023-03-02T15:02:36.410Z,37.30
2023-03-02T15:05:03.777Z,34.70
2023-03-02T15:07:37.391Z,35.97
2023-03-02T15:10:16.058Z,32.92
2023-03-02T15:12:57.484Z,35.13
2023-03-02T15:15:26.232Z,33.42
2023-03-02T15:17:53.081Z,34.05
2023-03-02T15:20:20.059Z,31.02
2023-03-02T15:22:47.000Z,33.03
2023-03-02T15:25:14.598Z,33.65
2023-03-02T15:27:41.727Z,33.25
2023-03-02T15:30:10.200Z,34.97
2023-03-02T15:32:37.555Z,33.15
2023-03-02T15:35:05.343Z,36.83
2023-03-02T15:37:32.602Z,35.47
2023-03-02T15:40:00.258Z,34.65
2023-03-02T15:42:27.695Z,34.05
2023-03-02T15:44:55.052Z,38.80
2023-03-02T15:47:22.596Z,36.22
2023-03-02T15:49:50.219Z,35.90
2023-03-02T15:52:19.658Z,36.53
2023-03-02T15:54:47.160Z,36.15
2023-03-02T15:57:15.245Z,38.47
2023-03-02T15:59:43.602Z,37.15
2023-03-02T16:02:15.250Z,36.77
2023-03-02T16:04:45.455Z,37.30
2023-03-02T16:07:15.827Z,38.53
2023-03-02T16:09:45.344Z,37.28
2023-03-02T16:12:12.701Z,31.75
2023-03-02T16:14:40.093Z,39.50
2023-03-02T16:17:07.352Z,37.83
2023-03-02T16:19:34.722Z,38.03
2023-03-02T16:22:02.293Z,37.13
2023-03-02T16:24:29.707Z,34.55
2023-03-02T16:26:57.064Z,39.60
2023-03-02T16:29:24.556Z,36.40
2023-03-02T16:31:51.981Z,36.97
2023-03-02T16:34:19.696Z,37.28
2023-03-02T16:36:47.014Z,36.65
2023-03-02T16:39:15.186Z,37.70
2023-03-02T16:41:45.614Z,36.90
2023-03-02T16:44:14.598Z,39.53
2023-03-02T16:46:43.658Z,37.60
2023-03-02T16:49:12.277Z,40.25
2023-03-02T16:51:40.472Z,38.55
2023-03-02T16:54:07.879Z,39.67
2023-03-02T16:56:35.370Z,39.40
2023-03-02T16:59:07.697Z,41.75
2023-03-02T17:01:35.244Z,39.85
2023-03-02T17:04:04.863Z,39.92
2023-03-02T17:06:33.394Z,40.85
2023-03-02T17:09:00.893Z,41.05
2023-03-02T17:11:28.295Z,41.40
2023-03-02T17:13:55.836Z,39.17
2023-03-02T17:16:23.228Z,41.65
2023-03-02T17:18:50.608Z,41.78
2023-03-02T17:21:17.949Z,43.72
2023-03-02T17:23:48.125Z,41.30
2023-03-02T17:26:16.247Z,41.65
2023-03-02T17:28:43.687Z,44.90
2023-03-02T17:31:12.406Z,40.53
2023-03-02T17:33:39.748Z,39.00
2023-03-02T17:36:09.709Z,40.15
2023-03-02T17:38:40.059Z,41.42
2023-03-02T17:41:08.436Z,43.70
2023-03-02T17:43:37.743Z,40.22
2023-03-02T17:46:14.227Z,41.83
2023-03-02T17:48:42.787Z,41.55
2023-03-02T17:51:11.769Z,39.90
2023-03-02T17:53:41.603Z,41.90
2023-03-02T17:56:14.733Z,41.78
2023-03-02T17:58:45.572Z,38.55
2023-03-02T18:03:57.093Z,40.15
2023-03-02T18:06:24.823Z,38.63
2023-03-02T18:08:52.910Z,42.47
2023-03-02T18:11:23.322Z,40.10
2023-03-02T18:13:50.954Z,40.85
2023-03-02T18:16:18.348Z,38.13
2023-03-02T18:18:45.766Z,38.13
2023-03-02T18:21:13.019Z,41.10
2023-03-02T18:23:41.995Z,36.78
2023-03-02T18:26:09.669Z,38.38
2023-03-02T18:28:37.136Z,37.03
2023-03-02T18:31:04.771Z,37.75
2023-03-02T18:33:32.278Z,37.97
2023-03-02T18:36:00.592Z,37.25
2023-03-02T18:38:30.929Z,39.55
2023-03-02T18:41:03.555Z,35.45
2023-03-02T18:43:34.737Z,40.08
2023-03-02T18:46:04.455Z,35.80
2023-03-02T18:48:32.755Z,38.17
2023-03-02T18:51:00.305Z,38.47
2023-03-02T18:53:29.005Z,38.05
2023-03-02T18:55:56.583Z,40.72
2023-03-02T18:58:25.544Z,40.85
2023-03-02T19:00:54.240Z,36.67
2023-03-02T19:03:22.466Z,39.65
2023-03-02T19:05:53.121Z,42.47
2023-03-02T19:08:23.392Z,40.60
2023-03-02T19:10:52.193Z,41.67
2023-03-02T19:13:20.180Z,50.70
2023-03-02T19:15:47.765Z,46.10
2023-03-02T19:18:21.878Z,41.15
2023-03-02T19:20:52.284Z,44.58
2023-03-02T19:23:19.659Z,42.75
2023-03-02T19:25:47.486Z,46.15
2023-03-02T19:28:16.075Z,43.08
2023-03-02T19:30:44.126Z,43.05
2023-03-02T19:33:11.589Z,47.22
2023-03-02T19:35:39.322Z,47.60
2023-03-02T19:38:08.114Z,47.10
2023-03-02T19:40:36.508Z,47.75
2023-03-02T19:43:04.707Z,45.15
2023-03-02T19:45:34.217Z,47.95
2023-03-02T19:48:02.723Z,50.38
2023-03-02T19:50:30.360Z,48.50
2023-03-02T19:52:58.083Z,47.03
2023-03-02T19:55:25.737Z,47.13
2023-03-02T19:57:59.526Z,51.25
2023-03-02T20:00:31.467Z,51.10
2023-03-02T20:02:59.660Z,47.33
2023-03-02T20:05:27.785Z,46.85
2023-03-02T20:07:55.705Z,46.38
2023-03-02T20:10:35.781Z,49.03
2023-03-02T20:13:03.664Z,49.25
2023-03-02T20:15:32.666Z,49.22
2023-03-02T20:18:02.417Z,49.13
2023-03-02T20:20:30.714Z,45.72
2023-03-02T20:23:00.054Z,52.70
2023-03-02T20:25:28.455Z,49.05
2023-03-02T20:27:57.106Z,47.50
2023-03-02T20:30:46.483Z,49.28
2023-03-02T20:33:14.024Z,50.08
2023-03-02T20:35:43.491Z,47.25
2023-03-02T20:38:16.057Z,49.38
2023-03-02T20:40:43.874Z,52.33
2023-03-02T20:43:11.447Z,51.60
2023-03-02T20:45:38.834Z,45.00
2023-03-02T20:48:06.565Z,45.40
2023-03-02T20:50:35.089Z,43.95
2023-03-02T20:53:03.476Z,46.30
2023-03-02T20:55:31.047Z,47.15
2023-03-02T20:57:58.811Z,46.38
2023-03-02T21:00:28.579Z,46.50
2023-03-02T21:02:57.357Z,47.75
2023-03-02T21:05:25.448Z,43.78
2023-03-02T21:07:53.376Z,51.13
2023-03-02T21:10:25.679Z,54.78
2023-03-02T21:12:53.161Z,48.05
2023-03-02T21:15:23.862Z,50.92
2023-03-02T21:17:54.549Z,51.60
2023-03-02T21:20:24.108Z,49.58
2023-03-02T21:22:51.517Z,50.03
2023-03-02T21:25:20.185Z,50.83
2023-03-02T21:27:47.849Z,49.53
2023-03-02T21:30:22.768Z,51.83
2023-03-02T21:32:50.512Z,55.95
2023-03-02T21:35:20.428Z,54.00
2023-03-02T21:37:49.063Z,50.58
2023-03-02T21:40:22.681Z,53.60
2023-03-02T21:42:50.036Z,53.28
2023-03-02T21:45:18.938Z,61.05
2023-03-02T21:47:46.768Z,56.13
2023-03-02T21:50:17.535Z,53.13
2023-03-02T21:52:45.294Z,53.17
2023-03-02T21:55:13.729Z,62.03
2023-03-02T21:57:41.910Z,51.83
2023-03-02T22:00:11.820Z,53.42
2023-03-02T22:02:39.911Z,60.20
2023-03-02T22:05:07.433Z,63.17
2023-03-02T22:07:34.671Z,62.33
2023-03-02T22:10:02.003Z,58.88
2023-03-02T22:12:29.321Z,61.45
2023-03-02T22:14:57.389Z,58.85
2023-03-02T22:17:24.939Z,60.10
2023-03-02T22:19:53.147Z,59.78
2023-03-02T22:22:24.443Z,63.00
2023-03-02T22:24:52.578Z,56.40
2023-03-02T22:27:30.007Z,55.15
2023-03-02T22:29:59.341Z,55.95
2023-03-02T22:32:37.277Z,58.13
2023-03-02T22:35:21.171Z,66.18
2023-03-02T22:37:48.919Z,55.50
2023-03-02T22:40:25.232Z,59.80
2023-03-02T22:43:00.748Z,62.33
2023-03-02T22:45:28.105Z,58.67
2023-03-02T22:47:55.623Z,59.92
2023-03-02T22:50:28.887Z,59.95
2023-03-02T22:52:58.212Z,56.47
2023-03-02T22:55:43.258Z,56.38
2023-03-02T22:58:22.259Z,54.63
2023-03-02T23:00:49.809Z,54.10
2023-03-02T23:03:19.468Z,52.42
2023-03-02T23:05:50.971Z,54.65
2023-03-02T23:08:30.043Z,59.78
2023-03-02T23:10:59.288Z,54.72
2023-03-02T23:13:36.990Z,55.90
2023-03-02T23:16:19.823Z,56.38
2023-03-02T23:18:48.467Z,52.05
2023-03-02T23:21:18.921Z,56.25
2023-03-02T23:23:47.268Z,52.72
2023-03-02T23:26:15.752Z,48.47
2023-03-02T23:28:43.124Z,50.78
2023-03-02T23:31:10.793Z,52.60
2023-03-02T23:33:38.027Z,47.60
2023-03-02T23:36:05.669Z,50.42
2023-03-02T23:38:32.970Z,49.10
2023-03-02T23:41:00.173Z,47.38
2023-03-02T23:43:27.431Z,52.47
2023-03-02T23:45:55.609Z,47.92
2023-03-02T23:48:23.877Z,45.83
2023-03-02T23:50:51.155Z,49.55
2023-03-02T23:53:21.456Z,46.85
2023-03-02T23:55:50.595Z,45.50
2023-03-02T23:58:18.005Z,41.67
